createdAt,value
2023-02-24T00:00:30.660Z,-7.00
2023-02-24T00:00:55.339Z,-7.00
2023-02-24T00:01:28.561Z,-7.02
2023-02-24T00:01:52.717Z,-7.03
2023-02-24T00:02:20.167Z,-7.03
2023-02-24T00:02:45.539Z,-7.02
2023-02-24T00:03:11.438Z,-7.02
2023-02-24T00:03:37.617Z,-7.01
2023-02-24T00:04:00.838Z,-7.01
2023-02-24T00:04:24.049Z,-7.00
2023-02-24T00:04:51.972Z,-6.98
2023-02-24T00:05:15.083Z,-6.98
2023-02-24T00:05:39.932Z,-6.98
2023-02-24T00:06:12.092Z,-6.97
2023-02-24T00:06:37.379Z,-6.96
2023-02-24T00:07:04.311Z,-6.96
2023-02-24T00:07:30.227Z,-6.95
2023-02-24T00:07:54.746Z,-6.94
2023-02-24T00:08:18.562Z,-6.93
2023-02-24T00:08:43.312Z,-6.94
2023-02-24T00:09:17.787Z,-6.93
2023-02-24T00:09:40.703Z,-6.92
2023-02-24T00:10:04.516Z,-6.91
2023-02-24T00:10:27.466Z,-6.91
2023-02-24T00:10:50.551Z,-6.89
2023-02-24T00:11:14.077Z,-6.89
2023-02-24T00:11:41.271Z,-6.88
2023-02-24T00:12:06.056Z,-6.88
2023-02-24T00:12:30.771Z,-6.87
2023-02-24T00:12:56.650Z,-6.87
2023-02-24T00:13:22.474Z,-6.86
2023-02-24T00:13:47.609Z,-6.85
2023-02-24T00:14:12.659Z,-6.84
2023-02-24T00:14:37.179Z,-6.83
2023-02-24T00:15:00.404Z,-6.82
2023-02-24T00:15:24.331Z,-6.81
2023-02-24T00:15:57.613Z,-6.80
2023-02-24T00:16:20.889Z,-6.80
2023-02-24T00:16:45.451Z,-6.79
2023-02-24T00:17:09.409Z,-6.77
2023-02-24T00:17:32.499Z,-6.76
2023-02-24T00:17:55.798Z,-6.76
2023-02-24T00:18:18.852Z,-6.75
2023-02-24T00:18:42.032Z,-6.74
2023-02-24T00:19:07.548Z,-6.72
2023-02-24T00:19:34.419Z,-6.72
2023-02-24T00:20:01.397Z,-6.70
2023-02-24T00:20:25.034Z,-6.69
2023-02-24T00:20:48.947Z,-6.69
2023-02-24T00:21:13.709Z,-6.69
2023-02-24T00:21:37.037Z,-6.68
2023-02-24T00:22:00.641Z,-6.68
2023-02-24T00:22:24.062Z,-6.69
2023-02-24T00:22:48.099Z,-6.69
2023-02-24T00:23:11.006Z,-6.69
2023-02-24T00:23:36.373Z,-6.69
2023-02-24T00:23:59.796Z,-6.70
2023-02-24T00:24:23.114Z,-6.70
2023-02-24T00:24:46.528Z,-6.71
2023-02-24T00:25:09.748Z,-6.72
2023-02-24T00:25:32.975Z,-6.72
2023-02-24T00:26:00.373Z,-6.72
2023-02-24T00:26:23.487Z,-6.74
2023-02-24T00:26:54.400Z,-6.75
2023-02-24T00:27:19.022Z,-6.75
2023-02-24T00:27:42.749Z,-6.76
2023-02-24T00:28:05.973Z,-6.76
2023-02-24T00:28:29.908Z,-6.77
2023-02-24T00:28:52.907Z,-6.77
2023-02-24T00:29:16.642Z,-6.77
2023-02-24T00:29:41.084Z,-6.79
2023-02-24T00:30:05.544Z,-6.79
2023-02-24T00:30:31.612Z,-6.80
2023-02-24T00:30:57.352Z,-6.81
2023-02-24T00:31:24.599Z,-6.82
2023-02-24T00:31:50.572Z,-6.83
2023-02-24T00:32:15.000Z,-6.84
2023-02-24T00:32:39.523Z,-6.85
2023-02-24T00:33:04.152Z,-6.86
2023-02-24T00:33:28.953Z,-6.86
2023-02-24T00:33:56.992Z,-6.87
2023-02-24T00:34:20.420Z,-6.88
2023-02-24T00:34:44.270Z,-6.90
2023-02-24T00:35:08.774Z,-6.91
2023-02-24T00:35:32.398Z,-6.92
2023-02-24T00:36:04.929Z,-6.92
2023-02-24T00:36:33.855Z,-6.94
2023-02-24T00:36:57.504Z,-6.95
2023-02-24T00:37:23.999Z,-6.96
2023-02-24T00:37:51.342Z,-6.96
2023-02-24T00:38:15.839Z,-6.97
2023-02-24T00:38:39.055Z,-6.98
2023-02-24T00:39:11.975Z,-6.99
2023-02-24T00:39:36.376Z,-7.00
2023-02-24T00:39:59.881Z,-7.01
2023-02-24T00:40:27.057Z,-7.02
2023-02-24T00:40:51.612Z,-7.03
2023-02-24T00:41:15.639Z,-7.05
2023-02-24T00:41:42.431Z,-7.05
2023-02-24T00:42:06.792Z,-7.07
2023-02-24T00:42:31.149Z,-7.08
2023-02-24T00:42:54.441Z,-7.09
2023-02-24T00:43:17.475Z,-7.10
2023-02-24T00:43:41.074Z,-7.12
2023-02-24T00:44:06.544Z,-7.12
2023-02-24T00:44:29.968Z,-7.13
2023-02-24T00:44:54.275Z,-7.14
2023-02-24T00:45:17.620Z,-7.16
2023-02-24T00:45:40.707Z,-7.17
2023-02-24T00:46:11.636Z,-7.18
2023-02-24T00:46:37.406Z,-7.18
2023-02-24T00:47:02.775Z,-7.18
2023-02-24T00:47:27.202Z,-7.18
2023-02-24T00:47:50.218Z,-7.17
2023-02-24T00:48:15.582Z,-7.17
2023-02-24T00:48:41.870Z,-7.16
2023-02-24T00:49:05.690Z,-7.15
2023-02-24T00:49:29.624Z,-7.14
2023-02-24T00:49:53.558Z,-7.14
2023-02-24T00:50:17.421Z,-7.13
2023-02-24T00:50:40.501Z,-7.12
2023-02-24T00:51:07.910Z,-7.12
2023-02-24T00:51:35.732Z,-7.11
2023-02-24T00:52:00.443Z,-7.10
2023-02-24T00:52:27.973Z,-7.09
2023-02-24T00:52:51.108Z,-7.09
2023-02-24T00:53:18.415Z,-7.09
2023-02-24T00:53:41.425Z,-7.07
2023-02-24T00:54:05.562Z,-7.07
2023-02-24T00:54:29.409Z,-7.06
2023-02-24T00:54:53.014Z,-7.05
2023-02-24T00:55:16.571Z,-7.04
2023-02-24T00:55:39.760Z,-7.04
2023-02-24T00:56:02.699Z,-7.03
2023-02-24T00:56:26.804Z,-7.02
2023-02-24T00:56:54.214Z,-7.01
2023-02-24T00:57:21.594Z,-7.01
2023-02-24T00:57:47.063Z,-7.00
2023-02-24T00:58:10.220Z,-6.99
2023-02-24T00:58:36.928Z,-6.98
2023-02-24T00:59:00.221Z,-6.98
2023-02-24T00:59:26.705Z,-6.97
2023-02-24T00:59:51.980Z,-6.96
2023-02-24T01:00:17.741Z,-6.95
2023-02-24T01:00:43.737Z,-6.94
2023-02-24T01:01:18.597Z,-6.93
2023-02-24T01:01:41.960Z,-6.92
2023-02-24T01:02:07.241Z,-6.90
2023-02-24T01:02:30.290Z,-6.89
2023-02-24T01:02:53.301Z,-6.88
2023-02-24T01:03:17.233Z,-6.87
2023-02-24T01:03:41.425Z,-6.86
2023-02-24T01:04:11.473Z,-6.85
2023-02-24T01:04:34.859Z,-6.83
2023-02-24T01:04:58.152Z,-6.82
2023-02-24T01:05:22.004Z,-6.81
2023-02-24T01:05:46.168Z,-6.81
2023-02-24T01:06:12.437Z,-6.80
2023-02-24T01:06:35.560Z,-6.80
2023-02-24T01:07:01.968Z,-6.79
2023-02-24T01:07:25.141Z,-6.79
2023-02-24T01:07:48.362Z,-6.80
2023-02-24T01:08:12.189Z,-6.79
2023-02-24T01:08:36.753Z,-6.79
2023-02-24T01:09:01.199Z,-6.80
2023-02-24T01:09:27.278Z,-6.80
2023-02-24T01:09:51.402Z,-6.80
2023-02-24T01:10:18.574Z,-6.81
2023-02-24T01:11:03.203Z,-6.81
2023-02-24T01:11:46.123Z,-6.81
2023-02-24T01:12:22.122Z,-6.82
2023-02-24T01:12:54.718Z,-6.83
2023-02-24T01:13:17.900Z,-6.84
2023-02-24T01:13:41.000Z,-6.84
2023-02-24T01:14:04.926Z,-6.84
2023-02-24T01:14:29.989Z,-6.85
2023-02-24T01:14:53.142Z,-6.85
2023-02-24T01:15:17.060Z,-6.86
2023-02-24T01:15:42.627Z,-6.86
2023-02-24T01:16:07.235Z,-6.87
2023-02-24T01:16:30.937Z,-6.87
2023-02-24T01:16:53.957Z,-6.87
2023-02-24T01:17:18.477Z,-6.88
2023-02-24T01:17:42.580Z,-6.89
2023-02-24T01:18:07.026Z,-6.89
2023-02-24T01:18:31.356Z,-6.90
2023-02-24T01:18:55.597Z,-6.91
2023-02-24T01:19:19.426Z,-6.92
2023-02-24T01:19:44.483Z,-6.92
2023-02-24T01:20:30.308Z,-6.92
2023-02-24T01:20:53.946Z,-6.94
2023-02-24T01:21:18.219Z,-6.94
2023-02-24T01:21:43.940Z,-6.95
2023-02-24T01:22:09.101Z,-6.96
2023-02-24T01:22:34.369Z,-6.96
2023-02-24T01:22:58.089Z,-6.97
2023-02-24T01:23:21.315Z,-6.98
2023-02-24T01:23:47.079Z,-6.98
2023-02-24T01:24:13.366Z,-7.00
2023-02-24T01:24:41.304Z,-7.00
2023-02-24T01:25:08.121Z,-7.01
2023-02-24T01:25:31.495Z,-7.01
2023-02-24T01:25:58.408Z,-7.02
2023-02-24T01:26:21.513Z,-7.03
2023-02-24T01:26:44.642Z,-7.04
2023-02-24T01:27:08.054Z,-7.04
2023-02-24T01:27:31.799Z,-7.05
2023-02-24T01:27:56.946Z,-7.06
2023-02-24T01:28:19.959Z,-7.07
2023-02-24T01:28:43.706Z,-7.08
2023-02-24T01:29:09.860Z,-7.09
2023-02-24T01:29:39.903Z,-7.09
2023-02-24T01:30:07.542Z,-7.11
2023-02-24T01:30:32.393Z,-7.12
2023-02-24T01:30:56.169Z,-7.13
2023-02-24T01:31:24.393Z,-7.14
2023-02-24T01:31:50.504Z,-7.14
2023-02-24T01:32:17.139Z,-7.15
2023-02-24T01:32:41.034Z,-7.14
2023-02-24T01:33:08.314Z,-7.14
2023-02-24T01:33:34.032Z,-7.13
2023-02-24T01:34:06.037Z,-7.12
2023-02-24T01:34:32.122Z,-7.11
2023-02-24T01:34:55.884Z,-7.11
2023-02-24T01:35:19.687Z,-7.10
2023-02-24T01:35:44.610Z,-7.09
2023-02-24T01:36:12.478Z,-7.08
2023-02-24T01:36:36.080Z,-7.07
2023-02-24T01:36:59.515Z,-7.06
2023-02-24T01:37:23.559Z,-7.05
2023-02-24T01:37:46.756Z,-7.05
2023-02-24T01:38:11.303Z,-7.04
2023-02-24T01:38:37.087Z,-7.03
2023-02-24T01:39:02.436Z,-7.02
2023-02-24T01:39:26.172Z,-7.01
2023-02-24T01:39:49.484Z,-7.01
2023-02-24T01:40:18.967Z,-6.99
2023-02-24T01:40:42.473Z,-6.99
2023-02-24T01:41:06.187Z,-6.99
2023-02-24T01:41:31.049Z,-6.98
2023-02-24T01:41:54.471Z,-6.97
2023-02-24T01:42:22.108Z,-6.96
2023-02-24T01:42:47.897Z,-6.96
2023-02-24T01:43:11.315Z,-6.95
2023-02-24T01:43:53.620Z,-6.95
2023-02-24T01:44:18.267Z,-6.94
2023-02-24T01:44:44.245Z,-6.93
2023-02-24T01:45:13.316Z,-6.92
2023-02-24T01:45:36.967Z,-6.90
2023-02-24T01:46:00.235Z,-6.89
2023-02-24T01:46:41.601Z,-6.88
2023-02-24T01:47:04.972Z,-6.86
2023-02-24T01:47:31.462Z,-6.86
2023-02-24T01:47:56.824Z,-6.84
2023-02-24T01:48:19.941Z,-6.83
2023-02-24T01:48:42.874Z,-6.82
2023-02-24T01:49:11.382Z,-6.80
2023-02-24T01:49:47.488Z,-6.79
2023-02-24T01:50:10.703Z,-6.78
2023-02-24T01:50:35.994Z,-6.78
2023-02-24T01:50:58.979Z,-6.77
2023-02-24T01:51:22.526Z,-6.77
2023-02-24T01:51:47.658Z,-6.77
2023-02-24T01:52:15.070Z,-6.77
2023-02-24T01:52:38.215Z,-6.78
2023-02-24T01:53:02.226Z,-6.79
2023-02-24T01:53:25.299Z,-6.79
2023-02-24T01:53:49.997Z,-6.79
2023-02-24T01:54:14.329Z,-6.79
2023-02-24T01:54:41.837Z,-6.79
2023-02-24T01:55:10.489Z,-6.80
2023-02-24T01:55:38.708Z,-6.81
2023-02-24T01:56:02.628Z,-6.81
2023-02-24T01:56:29.835Z,-6.81
2023-02-24T01:56:52.951Z,-6.81
2023-02-24T01:57:20.053Z,-6.81
2023-02-24T01:57:43.368Z,-6.82
2023-02-24T01:58:08.839Z,-6.83
2023-02-24T01:58:32.977Z,-6.83
2023-02-24T01:58:57.125Z,-6.83
2023-02-24T01:59:20.159Z,-6.84
2023-02-24T01:59:43.832Z,-6.85
2023-02-24T02:00:11.900Z,-6.85
2023-02-24T02:00:44.957Z,-6.86
2023-02-24T02:01:11.089Z,-6.88
2023-02-24T02:01:41.143Z,-6.88
2023-02-24T02:02:05.547Z,-6.89
2023-02-24T02:02:29.430Z,-6.91
2023-02-24T02:02:53.085Z,-6.92
2023-02-24T02:03:27.265Z,-6.92
2023-02-24T02:03:51.662Z,-6.94
2023-02-24T02:04:25.875Z,-6.95
2023-02-24T02:04:51.907Z,-6.97
2023-02-24T02:05:19.006Z,-6.98
2023-02-24T02:05:51.879Z,-6.99
2023-02-24T02:06:19.503Z,-7.00
2023-02-24T02:06:42.970Z,-7.02
2023-02-24T02:07:10.809Z,-7.03
2023-02-24T02:07:33.930Z,-7.04
2023-02-24T02:07:57.636Z,-7.06
2023-02-24T02:08:20.752Z,-7.07
2023-02-24T02:08:44.778Z,-7.09
2023-02-24T02:09:08.228Z,-7.09
2023-02-24T02:09:31.425Z,-7.11
2023-02-24T02:09:55.348Z,-7.12
2023-02-24T02:10:18.689Z,-7.13
2023-02-24T02:10:44.324Z,-7.14
2023-02-24T02:11:12.988Z,-7.16
2023-02-24T02:11:36.090Z,-7.17
2023-02-24T02:11:59.113Z,-7.18
2023-02-24T02:12:22.935Z,-7.19
2023-02-24T02:12:45.947Z,-7.20
2023-02-24T02:13:14.183Z,-7.21
2023-02-24T02:13:38.232Z,-7.23
2023-02-24T02:14:01.479Z,-7.24
2023-02-24T02:14:25.355Z,-7.25
2023-02-24T02:14:52.445Z,-7.26
2023-02-24T02:15:17.024Z,-7.27
2023-02-24T02:15:48.465Z,-7.26
2023-02-24T02:16:15.635Z,-7.27
2023-02-24T02:16:38.720Z,-7.26
2023-02-24T02:17:10.935Z,-7.26
2023-02-24T02:17:37.135Z,-7.25
2023-02-24T02:18:01.390Z,-7.24
2023-02-24T02:18:35.107Z,-7.24
2023-02-24T02:19:30.768Z,-7.23
2023-02-24T02:19:55.707Z,-7.22
2023-02-24T02:20:22.497Z,-7.22
2023-02-24T02:20:48.074Z,-7.21
2023-02-24T02:21:27.030Z,-7.21
2023-02-24T02:21:58.653Z,-7.21
2023-02-24T02:22:27.167Z,-7.20
2023-02-24T02:22:50.055Z,-7.19
2023-02-24T02:23:36.407Z,-7.19
2023-02-24T02:24:04.581Z,-7.18
2023-02-24T02:24:31.766Z,-7.17
2023-02-24T02:25:04.261Z,-7.17
2023-02-24T02:25:30.886Z,-7.16
2023-02-24T02:26:12.584Z,-7.15
2023-02-24T02:26:40.714Z,-7.14
2023-02-24T02:27:23.265Z,-7.12
2023-02-24T02:27:50.047Z,-7.11
2023-02-24T02:28:13.171Z,-7.11
2023-02-24T02:28:42.520Z,-7.09
2023-02-24T02:29:28.779Z,-7.08
2023-02-24T02:30:14.179Z,-7.07
2023-02-24T02:30:45.919Z,-7.05
2023-02-24T02:31:13.582Z,-7.04
2023-02-24T02:31:46.838Z,-7.02
2023-02-24T02:32:22.702Z,-7.01
2023-02-24T02:32:52.339Z,-7.00
2023-02-24T02:33:34.104Z,-6.98
2023-02-24T02:34:15.736Z,-6.97
2023-02-24T02:34:38.739Z,-6.94
2023-02-24T02:35:06.665Z,-6.94
2023-02-24T02:35:40.420Z,-6.92
2023-02-24T02:36:07.216Z,-6.91
2023-02-24T02:36:48.218Z,-6.92
2023-02-24T02:37:15.422Z,-6.92
2023-02-24T02:37:44.373Z,-6.92
2023-02-24T02:38:26.260Z,-6.93
2023-02-24T02:38:53.607Z,-6.93
2023-02-24T02:39:21.934Z,-6.94
2023-02-24T02:39:51.908Z,-6.94
2023-02-24T02:40:28.516Z,-6.95
2023-02-24T02:41:11.371Z,-6.96
2023-02-24T02:41:44.204Z,-6.97
2023-02-24T02:42:15.087Z,-6.97
2023-02-24T02:42:41.886Z,-6.98
2023-02-24T02:43:17.472Z,-6.99
2023-02-24T02:44:02.894Z,-7.00
2023-02-24T02:44:47.785Z,-7.01
2023-02-24T02:45:23.178Z,-7.02
2023-02-24T02:45:48.153Z,-7.03
2023-02-24T02:46:14.999Z,-7.04
2023-02-24T02:46:41.206Z,-7.05
2023-02-24T02:47:10.045Z,-7.06
2023-02-24T02:47:52.002Z,-7.07
2023-02-24T02:48:20.411Z,-7.08
2023-02-24T02:48:49.456Z,-7.10
2023-02-24T02:49:15.263Z,-7.11
2023-02-24T02:49:49.710Z,-7.12
2023-02-24T02:50:22.320Z,-7.13
2023-02-24T02:50:49.011Z,-7.15
2023-02-24T02:51:13.661Z,-7.16
2023-02-24T02:51:39.127Z,-7.17
2023-02-24T02:52:05.873Z,-7.18
2023-02-24T02:52:34.254Z,-7.19
2023-02-24T02:52:58.274Z,-7.20
2023-02-24T02:53:26.452Z,-7.21
2023-02-24T02:53:57.303Z,-7.23
2023-02-24T02:54:23.174Z,-7.24
2023-02-24T02:54:50.926Z,-7.25
2023-02-24T02:55:20.363Z,-7.27
2023-02-24T02:55:53.685Z,-7.28
2023-02-24T02:56:21.733Z,-7.30
2023-02-24T02:56:47.174Z,-7.31
2023-02-24T02:57:25.234Z,-7.32
2023-02-24T02:57:49.362Z,-7.34
2023-02-24T02:58:17.487Z,-7.35
2023-02-24T02:58:42.783Z,-7.36
2023-02-24T02:59:05.861Z,-7.36
2023-02-24T02:59:29.800Z,-7.37
2023-02-24T03:00:15.509Z,-7.37
2023-02-24T03:00:42.219Z,-7.37
2023-02-24T03:01:07.469Z,-7.36
2023-02-24T03:01:35.508Z,-7.35
2023-02-24T03:02:11.800Z,-7.36
2023-02-24T03:02:40.225Z,-7.35
2023-02-24T03:03:13.050Z,-7.35
2023-02-24T03:03:42.950Z,-7.34
2023-02-24T03:04:06.854Z,-7.34
2023-02-24T03:04:29.886Z,-7.33
2023-02-24T03:04:53.465Z,-7.32
2023-02-24T03:05:20.417Z,-7.32
2023-02-24T03:05:50.827Z,-7.32
2023-02-24T03:06:17.155Z,-7.31
2023-02-24T03:06:47.934Z,-7.30
2023-02-24T03:07:11.258Z,-7.30
2023-02-24T03:07:37.710Z,-7.29
2023-02-24T03:08:01.063Z,-7.28
2023-02-24T03:08:26.119Z,-7.28
2023-02-24T03:08:53.857Z,-7.27
2023-02-24T03:09:19.250Z,-7.27
2023-02-24T03:09:43.344Z,-7.26
2023-02-24T03:10:11.073Z,-7.25
2023-02-24T03:10:34.538Z,-7.25
2023-02-24T03:10:58.416Z,-7.24
2023-02-24T03:11:23.052Z,-7.23
2023-02-24T03:11:50.258Z,-7.23
2023-02-24T03:12:15.928Z,-7.22
2023-02-24T03:12:39.873Z,-7.21
2023-02-24T03:13:04.215Z,-7.20
2023-02-24T03:13:30.504Z,-7.19
2023-02-24T03:13:54.578Z,-7.19
2023-02-24T03:14:17.943Z,-7.18
2023-02-24T03:14:51.280Z,-7.18
2023-02-24T03:15:14.507Z,-7.16
2023-02-24T03:15:42.424Z,-7.15
2023-02-24T03:16:06.767Z,-7.14
2023-02-24T03:16:30.732Z,-7.13
2023-02-24T03:16:54.801Z,-7.12
2023-02-24T03:17:22.445Z,-7.11
2023-02-24T03:17:51.051Z,-7.09
2023-02-24T03:18:15.626Z,-7.09
2023-02-24T03:18:40.590Z,-7.07
2023-02-24T03:19:04.356Z,-7.06
2023-02-24T03:19:32.277Z,-7.05
2023-02-24T03:20:00.681Z,-7.05
2023-02-24T03:20:29.369Z,-7.04
2023-02-24T03:20:53.268Z,-7.02
2023-02-24T03:21:33.230Z,-7.02
2023-02-24T03:22:17.826Z,-7.00
2023-02-24T03:22:45.845Z,-6.98
2023-02-24T03:23:17.544Z,-6.98
2023-02-24T03:23:45.499Z,-6.97
2023-02-24T03:24:08.885Z,-6.96
2023-02-24T03:24:32.819Z,-6.94
2023-02-24T03:24:56.840Z,-6.94
2023-02-24T03:25:30.099Z,-6.94
2023-02-24T03:25:54.671Z,-6.93
2023-02-24T03:26:23.521Z,-6.94
2023-02-24T03:26:52.333Z,-6.94
2023-02-24T03:27:30.472Z,-6.94
2023-02-24T03:27:57.232Z,-6.94
2023-02-24T03:28:49.629Z,-6.95
2023-02-24T03:29:23.824Z,-6.96
2023-02-24T03:29:54.188Z,-6.97
2023-02-24T03:30:21.889Z,-6.97
2023-02-24T03:30:48.412Z,-6.98
2023-02-24T03:31:18.500Z,-6.98
2023-02-24T03:31:46.941Z,-6.99
2023-02-24T03:32:14.873Z,-6.99
2023-02-24T03:32:44.226Z,-7.00
2023-02-24T03:33:07.667Z,-7.01
2023-02-24T03:33:33.444Z,-7.02
2023-02-24T03:34:03.820Z,-7.02
2023-02-24T03:34:31.158Z,-7.04
2023-02-24T03:35:01.615Z,-7.04
2023-02-24T03:35:25.943Z,-7.05
2023-02-24T03:35:51.924Z,-7.06
2023-02-24T03:36:15.254Z,-7.07
2023-02-24T03:36:39.319Z,-7.08
2023-02-24T03:37:02.405Z,-7.08
2023-02-24T03:37:28.364Z,-7.10
2023-02-24T03:37:53.433Z,-7.10
2023-02-24T03:38:16.639Z,-7.11
2023-02-24T03:38:40.170Z,-7.12
2023-02-24T03:39:05.577Z,-7.14
2023-02-24T03:39:28.846Z,-7.14
2023-02-24T03:40:01.165Z,-7.15
2023-02-24T03:40:30.219Z,-7.16
2023-02-24T03:40:54.041Z,-7.18
2023-02-24T03:41:21.583Z,-7.19
2023-02-24T03:41:56.947Z,-7.19
2023-02-24T03:42:20.773Z,-7.21
2023-02-24T03:42:44.598Z,-7.22
2023-02-24T03:43:37.076Z,-7.23
2023-02-24T03:44:00.805Z,-7.24
2023-02-24T03:44:25.238Z,-7.26
2023-02-24T03:44:50.806Z,-7.26
2023-02-24T03:45:13.963Z,-7.27
2023-02-24T03:45:38.872Z,-7.28
2023-02-24T03:46:01.880Z,-7.29
2023-02-24T03:46:26.458Z,-7.30
2023-02-24T03:46:49.655Z,-7.30
2023-02-24T03:47:13.891Z,-7.29
2023-02-24T03:47:37.289Z,-7.28
2023-02-24T03:48:04.208Z,-7.28
2023-02-24T03:48:28.141Z,-7.27
2023-02-24T03:48:53.517Z,-7.26
2023-02-24T03:49:16.876Z,-7.25
2023-02-24T03:49:43.884Z,-7.25
2023-02-24T03:50:19.207Z,-7.24
2023-02-24T03:50:46.927Z,-7.23
2023-02-24T03:51:20.994Z,-7.23
2023-02-24T03:51:57.102Z,-7.22
2023-02-24T03:52:23.164Z,-7.21
2023-02-24T03:52:49.172Z,-7.20
2023-02-24T03:53:16.861Z,-7.20
2023-02-24T03:54:02.475Z,-7.20
2023-02-24T03:54:37.569Z,-7.18
2023-02-24T03:55:17.256Z,-7.17
2023-02-24T03:55:44.748Z,-7.16
2023-02-24T03:56:17.295Z,-7.16
2023-02-24T03:57:01.964Z,-7.16
2023-02-24T03:57:28.248Z,-7.14
2023-02-24T03:58:00.277Z,-7.14
2023-02-24T03:58:52.421Z,-7.12
2023-02-24T03:59:23.947Z,-7.11
2023-02-24T03:59:50.019Z,-7.09
2023-02-24T04:01:16.239Z,-7.06
2023-02-24T04:01:39.749Z,-7.04
2023-02-24T04:02:08.826Z,-7.03
2023-02-24T04:02:38.896Z,-7.02
2023-02-24T04:03:18.742Z,-7.01
2023-02-24T04:03:50.860Z,-6.99
2023-02-24T04:04:21.512Z,-6.98
2023-02-24T04:05:12.722Z,-6.96
2023-02-24T04:05:47.976Z,-6.94
2023-02-24T04:06:30.721Z,-6.93
2023-02-24T04:07:23.611Z,-6.91
2023-02-24T04:08:04.702Z,-6.89
2023-02-24T04:08:30.202Z,-6.87
2023-02-24T04:09:01.488Z,-6.86
2023-02-24T04:09:33.426Z,-6.85
2023-02-24T04:10:15.637Z,-6.84
2023-02-24T04:10:52.782Z,-6.82
2023-02-24T04:11:26.599Z,-6.81
2023-02-24T04:11:52.980Z,-6.80
2023-02-24T04:12:17.487Z,-6.80
2023-02-24T04:12:47.135Z,-6.81
2023-02-24T04:13:28.623Z,-6.81
2023-02-24T04:13:58.999Z,-6.82
2023-02-24T04:14:42.313Z,-6.83
2023-02-24T04:15:09.901Z,-6.84
2023-02-24T04:15:38.526Z,-6.85
2023-02-24T04:16:02.916Z,-6.86
2023-02-24T04:16:36.587Z,-6.87
2023-02-24T04:17:03.418Z,-6.88
2023-02-24T04:17:33.046Z,-6.89
2023-02-24T04:17:57.990Z,-6.91
2023-02-24T04:18:23.883Z,-6.92
2023-02-24T04:18:49.033Z,-6.92
2023-02-24T04:19:16.240Z,-6.93
2023-02-24T04:19:41.397Z,-6.94
2023-02-24T04:20:13.619Z,-6.94
2023-02-24T04:20:40.162Z,-6.96
2023-02-24T04:21:04.549Z,-6.97
2023-02-24T04:21:31.443Z,-6.98
2023-02-24T04:21:59.878Z,-6.99
2023-02-24T04:22:24.829Z,-7.00
2023-02-24T04:22:54.640Z,-7.00
2023-02-24T04:23:18.015Z,-7.01
2023-02-24T04:23:43.426Z,-7.02
2023-02-24T04:24:07.210Z,-7.03
2023-02-24T04:24:31.754Z,-7.04
2023-02-24T04:24:57.020Z,-7.05
2023-02-24T04:25:24.856Z,-7.05
2023-02-24T04:25:49.237Z,-7.06
2023-02-24T04:26:14.126Z,-7.07
2023-02-24T04:26:40.539Z,-7.08
2023-02-24T04:27:04.553Z,-7.08
2023-02-24T04:27:32.177Z,-7.09
2023-02-24T04:28:08.190Z,-7.11
2023-02-24T04:28:31.998Z,-7.11
2023-02-24T04:28:56.134Z,-7.12
2023-02-24T04:29:23.241Z,-7.12
2023-02-24T04:29:49.038Z,-7.13
2023-02-24T04:30:13.046Z,-7.14
2023-02-24T04:30:39.164Z,-7.14
2023-02-24T04:31:06.288Z,-7.15
2023-02-24T04:31:30.894Z,-7.16
2023-02-24T04:31:58.569Z,-7.17
2023-02-24T04:32:22.895Z,-7.18
2023-02-24T04:32:46.337Z,-7.19
2023-02-24T04:33:10.393Z,-7.19
2023-02-24T04:33:33.708Z,-7.19
2023-02-24T04:33:57.442Z,-7.19
2023-02-24T04:34:32.448Z,-7.20
2023-02-24T04:35:06.598Z,-7.20
2023-02-24T04:35:30.287Z,-7.20
2023-02-24T04:35:53.616Z,-7.19
2023-02-24T04:36:18.177Z,-7.18
2023-02-24T04:36:41.592Z,-7.18
2023-02-24T04:37:05.118Z,-7.17
2023-02-24T04:37:33.963Z,-7.16
2023-02-24T04:37:57.269Z,-7.16
2023-02-24T04:38:21.617Z,-7.14
2023-02-24T04:38:46.038Z,-7.13
2023-02-24T04:39:13.268Z,-7.13
2023-02-24T04:39:38.654Z,-7.12
2023-02-24T04:40:11.171Z,-7.11
2023-02-24T04:40:34.395Z,-7.10
2023-02-24T04:40:57.683Z,-7.10
2023-02-24T04:41:21.850Z,-7.09
2023-02-24T04:41:50.907Z,-7.08
2023-02-24T04:42:14.389Z,-7.08
2023-02-24T04:42:46.612Z,-7.07
2023-02-24T04:43:09.836Z,-7.06
2023-02-24T04:43:35.925Z,-7.05
2023-02-24T04:43:59.055Z,-7.04
2023-02-24T04:44:21.997Z,-7.03
2023-02-24T04:44:46.786Z,-7.02
2023-02-24T04:45:13.165Z,-7.02
2023-02-24T04:45:40.228Z,-7.02
2023-02-24T04:46:07.952Z,-7.01
2023-02-24T04:46:32.619Z,-6.99
2023-02-24T04:46:56.256Z,-6.99
2023-02-24T04:47:19.681Z,-6.98
2023-02-24T04:47:46.472Z,-6.98
2023-02-24T04:48:15.523Z,-6.96
2023-02-24T04:48:43.526Z,-6.95
2023-02-24T04:49:06.553Z,-6.94
2023-02-24T04:49:31.822Z,-6.93
2023-02-24T04:49:55.148Z,-6.92
2023-02-24T04:50:25.203Z,-6.91
2023-02-24T04:50:55.260Z,-6.89
2023-02-24T04:51:21.133Z,-6.87
2023-02-24T04:51:44.721Z,-6.86
2023-02-24T04:52:12.292Z,-6.85
2023-02-24T04:52:35.300Z,-6.83
2023-02-24T04:53:07.329Z,-6.82
2023-02-24T04:53:30.320Z,-6.80
2023-02-24T04:53:56.604Z,-6.78
2023-02-24T04:54:20.744Z,-6.77
2023-02-24T04:54:45.388Z,-6.75
2023-02-24T04:55:10.964Z,-6.74
2023-02-24T04:55:38.089Z,-6.73
2023-02-24T04:56:09.112Z,-6.72
2023-02-24T04:56:32.265Z,-6.70
2023-02-24T04:56:56.246Z,-6.69
2023-02-24T04:57:20.437Z,-6.67
2023-02-24T04:57:46.138Z,-6.66
2023-02-24T04:58:12.391Z,-6.64
2023-02-24T04:58:38.647Z,-6.63
2023-02-24T04:59:02.815Z,-6.61
2023-02-24T04:59:26.744Z,-6.61
2023-02-24T04:59:49.759Z,-6.60
2023-02-24T05:00:20.974Z,-6.60
2023-02-24T05:00:44.072Z,-6.60
2023-02-24T05:01:10.159Z,-6.60
2023-02-24T05:01:33.232Z,-6.60
2023-02-24T05:02:01.543Z,-6.59
2023-02-24T05:02:24.808Z,-6.60
2023-02-24T05:02:48.841Z,-6.60
2023-02-24T05:03:12.669Z,-6.59
2023-02-24T05:03:36.333Z,-6.59
2023-02-24T05:04:00.412Z,-6.59
2023-02-24T05:04:24.234Z,-6.58
2023-02-24T05:04:50.002Z,-6.59
2023-02-24T05:05:16.220Z,-6.59
2023-02-24T05:05:47.850Z,-6.59
2023-02-24T05:06:16.127Z,-6.59
2023-02-24T05:06:44.214Z,-6.59
2023-02-24T05:07:07.395Z,-6.60
2023-02-24T05:07:30.507Z,-6.60
2023-02-24T05:07:54.747Z,-6.60
2023-02-24T05:08:17.962Z,-6.60
2023-02-24T05:08:40.879Z,-6.60
2023-02-24T05:09:14.244Z,-6.60
2023-02-24T05:09:37.215Z,-6.60
2023-02-24T05:10:01.574Z,-6.61
2023-02-24T05:10:35.121Z,-6.61
2023-02-24T05:10:58.892Z,-6.62
2023-02-24T05:11:24.316Z,-6.62
2023-02-24T05:11:49.578Z,-6.63
2023-02-24T05:12:12.583Z,-6.63
2023-02-24T05:12:35.694Z,-6.63
2023-02-24T05:12:59.456Z,-6.64
2023-02-24T05:13:28.177Z,-6.65
2023-02-24T05:13:51.482Z,-6.66
2023-02-24T05:14:14.931Z,-6.66
2023-02-24T05:14:39.764Z,-6.67
2023-02-24T05:15:04.199Z,-6.68
2023-02-24T05:15:31.309Z,-6.68
2023-02-24T05:15:55.762Z,-6.69
2023-02-24T05:16:23.323Z,-6.71
2023-02-24T05:16:49.237Z,-6.71
2023-02-24T05:17:16.556Z,-6.72
2023-02-24T05:17:40.892Z,-6.73
2023-02-24T05:18:08.049Z,-6.73
2023-02-24T05:18:37.257Z,-6.74
2023-02-24T05:19:19.716Z,-6.75
2023-02-24T05:20:01.715Z,-6.76
2023-02-24T05:20:43.850Z,-6.77
2023-02-24T05:21:29.783Z,-6.79
2023-02-24T05:21:53.093Z,-6.80
2023-02-24T05:22:17.841Z,-6.81
2023-02-24T05:22:40.858Z,-6.82
2023-02-24T05:23:04.274Z,-6.82
2023-02-24T05:23:27.700Z,-6.82
2023-02-24T05:24:11.776Z,-6.84
2023-02-24T05:24:38.886Z,-6.84
2023-02-24T05:25:06.606Z,-6.85
2023-02-24T05:25:29.606Z,-6.85
2023-02-24T05:25:57.325Z,-6.85
2023-02-24T05:26:21.054Z,-6.85
2023-02-24T05:26:43.983Z,-6.85
2023-02-24T05:27:10.045Z,-6.84
2023-02-24T05:27:39.127Z,-6.83
2023-02-24T05:28:04.245Z,-6.81
2023-02-24T05:28:31.654Z,-6.80
2023-02-24T05:28:56.591Z,-6.79
2023-02-24T05:29:19.728Z,-6.77
2023-02-24T05:29:44.374Z,-6.76
2023-02-24T05:30:09.942Z,-6.75
2023-02-24T05:30:33.301Z,-6.74
2023-02-24T05:30:56.637Z,-6.73
2023-02-24T05:31:24.331Z,-6.71
2023-02-24T05:31:47.627Z,-6.70
2023-02-24T05:32:10.945Z,-6.69
2023-02-24T05:32:35.072Z,-6.68
2023-02-24T05:32:58.899Z,-6.67
2023-02-24T05:33:22.633Z,-6.66
2023-02-24T05:33:46.678Z,-6.65
2023-02-24T05:34:11.822Z,-6.64
2023-02-24T05:34:35.245Z,-6.62
2023-02-24T05:34:58.661Z,-6.62
2023-02-24T05:35:22.036Z,-6.60
2023-02-24T05:35:45.708Z,-6.59
2023-02-24T05:36:10.155Z,-6.57
2023-02-24T05:36:40.673Z,-6.57
2023-02-24T05:37:10.860Z,-6.55
2023-02-24T05:37:37.452Z,-6.53
2023-02-24T05:38:00.917Z,-6.52
2023-02-24T05:38:24.131Z,-6.49
2023-02-24T05:38:47.962Z,-6.47
2023-02-24T05:39:12.898Z,-6.46
2023-02-24T05:39:36.504Z,-6.44
2023-02-24T05:40:00.484Z,-6.43
2023-02-24T05:40:25.127Z,-6.41
2023-02-24T05:40:48.544Z,-6.39
2023-02-24T05:41:17.754Z,-6.38
2023-02-24T05:41:42.079Z,-6.36
2023-02-24T05:42:11.996Z,-6.34
2023-02-24T05:42:35.335Z,-6.32
2023-02-24T05:42:58.332Z,-6.30
2023-02-24T05:43:21.445Z,-6.27
2023-02-24T05:43:48.439Z,-6.26
2023-02-24T05:44:13.935Z,-6.25
2023-02-24T05:44:46.537Z,-6.22
2023-02-24T05:45:11.693Z,-6.20
2023-02-24T05:45:38.180Z,-6.18
2023-02-24T05:46:03.978Z,-6.16
2023-02-24T05:46:32.644Z,-6.14
2023-02-24T05:46:59.508Z,-6.12
2023-02-24T05:47:25.389Z,-6.09
2023-02-24T05:47:49.246Z,-6.06
2023-02-24T05:48:15.089Z,-6.05
2023-02-24T05:48:38.102Z,-6.03
2023-02-24T05:49:02.754Z,-6.01
2023-02-24T05:49:33.905Z,-6.00